To NAV CANADA Home Page Login to a new session Search on AWWS site Feedback and Comments Disclaimer Vers la page française équivalente Tips FAQ What's new on the site To the Forecasts and Observations / NOTAM section To "File a Flight Plan" website Publications and other links Update of the User's profile FIC Telephone Numbers My Weather Data Folder Route Weather Data Regional Weather Data Local Weather Data To the Forecasts and Observations / NOTAM section
Request Generated 08/27/2015 at 21:21:15 UTC . Weather information available at that time is displayed.

METAR/TAF

FARO/YT    

METAR CZFA 272100Z VRB03KT 30SM SCT015 OVC045 12/08 A2953 RMK SF3SC5
VIS S 5 SLP018 DENSITY ALT 2900FT=
METAR CZFA 272000Z VRB02KT 30SM -RA FEW014 BKN045 OVC050 12/09 A2955
RMK ST2SC5SC1 -RA INTMT VIS S 5 RDCD BY LW CLDS SLP025 DENSITY ALT
2900FT=
METAR CZFA 271900Z VRB02KT 30SM FEW014 BKN050 OVC060 11/08 A2957 RMK
ST1SC6SC1 -RA INTMT VIS SE 15 RDCD BY LW CLDS SLP032 DENSITY ALT
2700FT=

TAF CZFA 271738Z 2718/2801 28005KT P6SM FEW012 FEW030 BKN060 TEMPO
2718/2801 5SM -SHRA BR SCT010 BKN025 OVC060
RMK NXT FCST WILL BE ISSUED AT 281445Z=
Your time UTC time
Weather data provided by Environment Canada and NAV CANADA